createdAt,value
2022-10-04T00:02:34.147Z,101537.53
2022-10-04T00:05:07.646Z,101537.28
2022-10-04T00:07:38.594Z,101527.38
2022-10-04T00:10:23.267Z,101529.00
2022-10-04T00:12:58.687Z,101520.84
2022-10-04T00:15:32.796Z,101521.78
2022-10-04T00:18:11.706Z,101527.16
2022-10-04T00:20:50.615Z,101526.09
2022-10-04T00:23:24.162Z,101530.28
2022-10-04T00:26:01.719Z,101527.59
2022-10-04T00:28:30.756Z,101526.56
2022-10-04T00:31:20.966Z,101526.44
2022-10-04T00:33:50.185Z,101533.88
2022-10-04T00:36:39.930Z,101533.44
2022-10-04T00:39:09.442Z,101533.28
2022-10-04T00:41:48.429Z,101528.25
2022-10-04T00:44:45.798Z,101526.03
2022-10-04T00:47:48.026Z,101530.81
2022-10-04T00:50:21.699Z,101532.91
2022-10-04T00:52:57.007Z,101520.91
2022-10-04T00:55:33.101Z,101525.44
2022-10-04T00:58:02.557Z,101520.09
2022-10-04T01:00:33.332Z,101513.91
2022-10-04T01:03:15.276Z,101509.81
2022-10-04T01:05:47.106Z,101510.28
2022-10-04T01:08:28.832Z,101509.09
2022-10-04T01:11:00.146Z,101501.75
2022-10-04T01:13:56.109Z,101495.22
2022-10-04T01:16:28.833Z,101502.31
2022-10-04T01:18:56.295Z,101499.53
2022-10-04T01:21:28.426Z,101488.81
2022-10-04T01:23:57.958Z,101483.06
2022-10-04T01:26:31.654Z,101486.88
2022-10-04T01:29:36.959Z,101484.78
2022-10-04T01:32:03.657Z,101495.03
2022-10-04T01:34:30.727Z,101493.75
2022-10-04T01:36:59.909Z,101486.06
2022-10-04T01:39:28.317Z,101489.56
2022-10-04T01:42:20.087Z,101484.56
2022-10-04T01:44:55.366Z,101478.63
2022-10-04T01:47:35.516Z,101474.56
2022-10-04T01:50:15.647Z,101470.59
2022-10-04T01:52:48.391Z,101473.47
2022-10-04T01:55:20.514Z,101459.28
2022-10-04T01:57:55.140Z,101458.69
2022-10-04T02:00:24.466Z,101452.75
2022-10-04T02:03:03.480Z,101448.88
2022-10-04T02:05:45.077Z,101448.28
2022-10-04T02:08:18.487Z,101452.81
2022-10-04T02:10:47.000Z,101451.56
2022-10-04T02:13:21.641Z,101461.69
2022-10-04T02:15:49.805Z,101459.81
2022-10-04T02:18:22.537Z,101453.78
2022-10-04T02:20:51.170Z,101440.97
2022-10-04T02:23:21.136Z,101438.88
2022-10-04T02:25:47.929Z,101442.63
2022-10-04T02:28:16.210Z,101424.91
2022-10-04T02:31:07.888Z,101425.72
2022-10-04T02:33:40.152Z,101413.59
2022-10-04T02:36:09.396Z,101415.69
2022-10-04T02:39:00.819Z,101420.81
2022-10-04T02:41:38.041Z,101423.72
2022-10-04T02:44:17.805Z,101425.38
2022-10-04T02:46:52.543Z,101425.81
2022-10-04T02:49:28.449Z,101424.63
2022-10-04T02:52:12.801Z,101413.00
2022-10-04T02:54:52.696Z,101414.66
2022-10-04T02:57:22.141Z,101408.47
2022-10-04T02:59:49.612Z,101407.66
2022-10-04T03:02:29.814Z,101415.69
2022-10-04T03:05:04.589Z,101409.16
2022-10-04T03:07:36.259Z,101399.50
2022-10-04T03:10:09.183Z,101404.88
2022-10-04T03:12:37.422Z,101412.31
2022-10-04T03:15:06.335Z,101409.50
2022-10-04T03:17:34.245Z,101402.50
2022-10-04T03:20:01.199Z,101408.31
2022-10-04T03:22:27.765Z,101403.41
2022-10-04T03:24:57.172Z,101405.03
2022-10-04T03:27:31.370Z,101403.41
2022-10-04T03:29:59.496Z,101396.41
2022-10-04T03:32:30.586Z,101397.47
2022-10-04T03:35:01.463Z,101395.03
2022-10-04T03:37:30.797Z,101403.16
2022-10-04T03:39:58.706Z,101410.59
2022-10-04T03:42:28.860Z,101406.84
2022-10-04T03:45:07.136Z,101407.31
2022-10-04T03:47:41.008Z,101405.72
2022-10-04T03:50:29.421Z,101407.31
2022-10-04T03:53:06.339Z,101404.53
2022-10-04T03:55:38.693Z,101407.41
2022-10-04T03:58:06.594Z,101401.00
2022-10-04T04:00:40.125Z,101410.00
2022-10-04T04:03:15.202Z,101412.22
2022-10-04T04:05:46.886Z,101411.78
2022-10-04T04:08:32.502Z,101416.66
2022-10-04T04:11:02.880Z,101417.72
2022-10-04T04:13:45.244Z,101407.13
2022-10-04T04:16:12.223Z,101399.47
2022-10-04T04:18:43.407Z,101413.22
2022-10-04T04:21:16.159Z,101424.31
2022-10-04T04:23:48.668Z,101420.78
2022-10-04T04:26:42.119Z,101416.03
2022-10-04T04:29:26.278Z,101415.56
2022-10-04T04:31:59.179Z,101418.00
2022-10-04T04:34:30.890Z,101423.72
2022-10-04T04:37:00.232Z,101424.91
2022-10-04T04:39:34.226Z,101423.28
2022-10-04T04:42:05.902Z,101431.31
2022-10-04T04:44:33.450Z,101431.16
2022-10-04T04:47:00.557Z,101418.84
2022-10-04T04:49:31.247Z,101415.56
2022-10-04T04:51:58.058Z,101426.13
2022-10-04T04:54:27.743Z,101430.09
2022-10-04T04:56:56.533Z,101428.91
2022-10-04T04:59:27.092Z,101426.47
2022-10-04T05:01:53.788Z,101418.53
2022-10-04T05:04:24.410Z,101417.84
2022-10-04T05:07:06.367Z,101404.00
2022-10-04T05:09:40.864Z,101404.13
2022-10-04T05:12:17.042Z,101404.59
2022-10-04T05:14:52.805Z,101402.63
2022-10-04T05:17:23.149Z,101401.78
2022-10-04T05:19:51.566Z,101405.19
2022-10-04T05:22:22.867Z,101407.97
2022-10-04T05:24:57.115Z,101411.84
2022-10-04T05:27:29.583Z,101408.47
2022-10-04T05:30:04.963Z,101409.91
2022-10-04T05:32:56.177Z,101408.84
2022-10-04T05:35:23.549Z,101398.59
2022-10-04T05:38:00.103Z,101404.53
2022-10-04T05:40:50.192Z,101400.59
2022-10-04T05:43:35.480Z,101402.19
2022-10-04T05:46:20.446Z,101398.94
2022-10-04T05:48:52.402Z,101399.63
2022-10-04T05:51:30.092Z,101389.25
2022-10-04T05:54:04.118Z,101391.34
2022-10-04T05:56:30.761Z,101394.34
2022-10-04T05:59:12.591Z,101396.41
2022-10-04T06:01:42.666Z,101398.50
2022-10-04T06:04:42.527Z,101397.25
2022-10-04T06:07:23.111Z,101404.69
2022-10-04T06:10:11.569Z,101407.41
2022-10-04T06:12:57.899Z,101424.09
2022-10-04T06:16:01.885Z,101422.59
2022-10-04T06:18:58.384Z,101433.13
2022-10-04T06:21:27.841Z,101425.91
2022-10-04T06:24:03.611Z,101427.09
2022-10-04T06:26:40.910Z,101427.41
2022-10-04T06:29:13.636Z,101429.41
2022-10-04T06:32:05.413Z,101432.94
2022-10-04T06:34:35.826Z,101430.97
2022-10-04T06:37:05.736Z,101429.09
2022-10-04T06:39:38.330Z,101431.53
2022-10-04T06:42:34.169Z,101431.66
2022-10-04T06:45:30.197Z,101441.09
2022-10-04T06:47:56.684Z,101428.41
2022-10-04T06:53:43.484Z,101426.19
2022-10-04T06:56:55.845Z,101435.63
2022-10-04T06:59:44.915Z,101433.19
2022-10-04T07:02:17.855Z,101440.75
2022-10-04T07:05:14.521Z,101440.16
2022-10-04T07:07:47.623Z,101447.28
2022-10-04T07:10:33.196Z,101447.59
2022-10-04T07:13:09.548Z,101449.34
2022-10-04T07:16:02.469Z,101453.50
2022-10-04T07:18:42.202Z,101459.22
2022-10-04T07:21:14.562Z,101454.88
2022-10-04T07:24:04.624Z,101466.69
2022-10-04T07:26:43.653Z,101462.91
2022-10-04T07:29:22.687Z,101457.97
2022-10-04T07:32:02.976Z,101457.97
2022-10-04T07:34:31.727Z,101457.03
2022-10-04T07:37:06.652Z,101446.22
2022-10-04T07:39:39.379Z,101452.34
2022-10-04T07:42:30.950Z,101454.28
2022-10-04T07:45:29.126Z,101458.31
2022-10-04T07:48:18.022Z,101465.22
2022-10-04T07:51:09.338Z,101457.31
2022-10-04T07:53:57.771Z,101447.69
2022-10-04T07:56:37.298Z,101448.59
2022-10-04T07:59:25.837Z,101451.59
2022-10-04T08:02:11.818Z,101455.72
2022-10-04T08:04:49.749Z,101460.25
2022-10-04T08:07:25.971Z,101446.03
2022-10-04T08:10:14.548Z,101448.50
2022-10-04T08:13:12.472Z,101449.13
2022-10-04T08:15:46.214Z,101444.22
2022-10-04T08:18:45.573Z,101442.63
2022-10-04T08:21:43.452Z,101447.44
2022-10-04T08:24:30.441Z,101445.16
2022-10-04T08:27:38.259Z,101446.19
2022-10-04T08:30:11.058Z,101439.56
2022-10-04T08:32:56.544Z,101436.50
2022-10-04T08:35:33.364Z,101432.56
2022-10-04T08:38:35.458Z,101431.06
2022-10-04T08:41:27.142Z,101429.22
2022-10-04T08:44:29.064Z,101420.38
2022-10-04T08:46:59.354Z,101429.34
2022-10-04T08:49:39.711Z,101422.38
2022-10-04T08:52:18.562Z,101427.03
2022-10-04T08:54:57.127Z,101433.03
2022-10-04T08:58:01.660Z,101432.06
2022-10-04T09:03:42.767Z,101426.72
2022-10-04T09:06:31.583Z,101428.06
2022-10-04T09:09:21.094Z,101425.94
2022-10-04T09:12:14.368Z,101430.03
2022-10-04T09:14:51.533Z,101421.59
2022-10-04T09:17:23.027Z,101423.50
2022-10-04T09:20:09.287Z,101422.22
2022-10-04T09:22:49.223Z,101422.22
2022-10-04T09:25:34.744Z,101427.41
2022-10-04T09:28:20.721Z,101425.28
2022-10-04T09:30:56.564Z,101430.19
2022-10-04T09:33:42.601Z,101428.53
2022-10-04T09:36:24.490Z,101422.50
2022-10-04T09:39:29.534Z,101418.66
2022-10-04T09:42:33.640Z,101417.56
2022-10-04T09:45:15.787Z,101416.34
2022-10-04T09:47:51.698Z,101409.22
2022-10-04T09:50:42.246Z,101409.72
2022-10-04T09:53:28.245Z,101405.38
2022-10-04T09:56:16.141Z,101403.56
2022-10-04T09:59:08.975Z,101406.03
2022-10-04T10:01:51.247Z,101396.38
2022-10-04T10:04:39.241Z,101404.38
2022-10-04T10:07:36.141Z,101400.69
2022-10-04T10:10:39.205Z,101399.88
2022-10-04T10:13:44.639Z,101390.56
2022-10-04T10:16:29.847Z,101387.94
2022-10-04T10:19:28.189Z,101386.97
2022-10-04T10:22:28.926Z,101389.31
2022-10-04T10:25:11.242Z,101384.25
2022-10-04T10:27:58.204Z,101384.22
2022-10-04T10:30:35.567Z,101393.38
2022-10-04T10:33:04.994Z,101400.19
2022-10-04T10:36:01.050Z,101397.28
2022-10-04T10:38:48.360Z,101384.25
2022-10-04T10:41:22.793Z,101395.59
2022-10-04T10:44:02.209Z,101385.13
2022-10-04T10:46:38.299Z,101386.81
2022-10-04T10:49:22.275Z,101385.63
2022-10-04T10:52:25.996Z,101382.09
2022-10-04T10:55:11.192Z,101377.66
2022-10-04T10:58:09.144Z,101378.91
2022-10-04T11:00:44.780Z,101362.25
2022-10-04T11:03:14.596Z,101367.66
2022-10-04T11:06:13.957Z,101373.38
2022-10-04T11:09:18.284Z,101362.19
2022-10-04T11:11:50.725Z,101355.97
2022-10-04T11:14:35.583Z,101358.88
2022-10-04T11:17:35.000Z,101352.16
2022-10-04T11:20:16.829Z,101358.19
2022-10-04T11:23:11.462Z,101349.56
2022-10-04T11:25:57.567Z,101338.03
2022-10-04T11:28:46.505Z,101339.56
2022-10-04T11:31:32.531Z,101338.88
2022-10-04T11:34:18.557Z,101332.22
2022-10-04T11:36:57.039Z,101336.81
2022-10-04T11:39:23.770Z,101344.41
2022-10-04T11:42:12.122Z,101340.78
2022-10-04T11:45:02.660Z,101332.41
2022-10-04T11:47:45.879Z,101330.50
2022-10-04T11:50:41.840Z,101332.03
2022-10-04T11:53:27.441Z,101330.91
2022-10-04T11:56:17.185Z,101330.97
2022-10-04T11:58:58.324Z,101329.00
2022-10-04T12:02:18.299Z,101325.91
2022-10-04T12:05:07.705Z,101313.00
2022-10-04T12:07:46.439Z,101303.75
2022-10-04T12:10:34.134Z,101293.72
2022-10-04T12:13:28.892Z,101290.56
2022-10-04T12:16:27.659Z,101282.34
2022-10-04T12:19:32.005Z,101287.25
2022-10-04T12:22:25.150Z,101288.72
2022-10-04T12:25:29.501Z,101291.84
2022-10-04T12:28:26.931Z,101284.97
2022-10-04T12:31:29.209Z,101286.41
2022-10-04T12:34:02.592Z,101278.84
2022-10-04T12:36:57.845Z,101285.78
2022-10-04T12:39:36.802Z,101279.28
2022-10-04T12:42:16.213Z,101281.44
2022-10-04T12:44:56.766Z,101275.16
2022-10-04T12:47:57.639Z,101268.47
2022-10-04T12:50:31.121Z,101268.09
2022-10-04T12:53:34.827Z,101265.81
2022-10-04T12:56:21.853Z,101263.78
2022-10-04T12:59:07.097Z,101256.34
2022-10-04T13:01:41.058Z,101252.88
2022-10-04T13:04:14.451Z,101255.75
2022-10-04T13:07:07.082Z,101256.72
2022-10-04T13:10:23.548Z,101257.19
2022-10-04T13:13:11.159Z,101255.44
2022-10-04T13:19:10.038Z,101254.25
2022-10-04T13:21:36.630Z,101257.91
2022-10-04T13:24:53.966Z,101242.00
2022-10-04T13:27:52.696Z,101250.03
2022-10-04T13:30:26.499Z,101248.41
2022-10-04T13:32:56.858Z,101246.19
2022-10-04T13:35:54.781Z,101244.78
2022-10-04T13:38:40.171Z,101246.22
2022-10-04T13:41:25.431Z,101238.75
2022-10-04T13:44:17.956Z,101237.75
2022-10-04T13:47:18.808Z,101241.00
2022-10-04T13:50:26.241Z,101239.41
2022-10-04T13:53:53.778Z,101240.81
2022-10-04T13:56:42.375Z,101240.81
2022-10-04T13:59:35.839Z,101226.28
2022-10-04T14:02:40.334Z,101233.03
2022-10-04T14:05:37.841Z,101236.91
2022-10-04T14:08:04.364Z,101222.78
2022-10-04T14:10:49.832Z,101218.44
2022-10-04T14:13:41.224Z,101215.59
2022-10-04T14:16:37.915Z,101219.69
2022-10-04T14:19:34.908Z,101216.22
2022-10-04T14:22:32.415Z,101209.75
2022-10-04T14:25:31.079Z,101205.75
2022-10-04T14:28:39.928Z,101207.53
2022-10-04T14:31:37.037Z,101207.38
2022-10-04T14:34:57.032Z,101206.75
2022-10-04T14:37:38.725Z,101204.72
2022-10-04T14:40:43.057Z,101202.09
2022-10-04T14:43:48.375Z,101195.84
2022-10-04T14:46:31.333Z,101200.91
2022-10-04T14:49:14.410Z,101199.66
2022-10-04T14:52:06.763Z,101193.63
2022-10-04T14:54:45.597Z,101201.88
2022-10-04T14:57:32.919Z,101195.31
2022-10-04T15:00:12.145Z,101204.09
2022-10-04T15:03:05.031Z,101203.09
2022-10-04T15:05:53.373Z,101204.88
2022-10-04T15:08:24.698Z,101199.44
2022-10-04T15:11:14.580Z,101193.59
2022-10-04T15:14:06.175Z,101184.41
2022-10-04T15:16:55.203Z,101171.09
2022-10-04T15:19:21.724Z,101161.78
2022-10-04T15:21:59.756Z,101162.28
2022-10-04T15:24:28.200Z,101167.44
2022-10-04T15:27:16.690Z,101165.22
2022-10-04T15:30:23.280Z,101165.06
2022-10-04T15:33:25.618Z,101170.47
2022-10-04T15:36:30.479Z,101173.59
2022-10-04T15:39:06.446Z,101176.97
2022-10-04T15:41:45.820Z,101180.06
2022-10-04T15:44:58.133Z,101183.84
2022-10-04T15:48:13.603Z,101179.38
2022-10-04T15:51:47.235Z,101181.44
2022-10-04T15:58:58.660Z,101175.91
2022-10-04T16:06:31.061Z,101168.97
2022-10-04T16:10:15.571Z,101163.66
2022-10-04T16:13:07.119Z,101155.00
2022-10-04T16:16:03.817Z,101151.78
2022-10-04T16:26:02.804Z,101153.63
2022-10-04T16:33:37.358Z,101140.38
2022-10-04T16:41:00.794Z,101135.50
2022-10-04T16:43:35.806Z,101132.59
2022-10-04T16:46:37.643Z,101134.56
2022-10-04T16:50:10.935Z,101125.91
2022-10-04T16:53:29.082Z,101129.25
2022-10-04T16:55:57.802Z,101126.56
2022-10-04T16:58:46.783Z,101133.59
2022-10-04T17:01:28.549Z,101151.78
2022-10-04T17:04:05.258Z,101148.31
2022-10-04T17:11:09.080Z,101153.59
2022-10-04T17:14:09.789Z,101157.69
2022-10-04T17:17:00.250Z,101159.09
2022-10-04T17:23:11.682Z,101154.00
2022-10-04T17:29:17.476Z,101164.84
2022-10-04T17:32:32.954Z,101167.84
2022-10-04T17:35:33.121Z,101181.13
2022-10-04T17:38:18.047Z,101180.88
2022-10-04T17:41:22.581Z,101182.25
2022-10-04T17:44:27.538Z,101194.22
2022-10-04T17:47:57.062Z,101198.56
2022-10-04T17:51:14.964Z,101188.84
2022-10-04T17:54:20.858Z,101192.38
2022-10-04T17:57:11.671Z,101194.81
2022-10-04T18:00:07.640Z,101192.13
2022-10-04T18:03:08.958Z,101189.41
2022-10-04T18:06:03.633Z,101184.56
2022-10-04T18:09:02.579Z,101185.72
2022-10-04T18:11:47.585Z,101190.06
2022-10-04T18:15:14.206Z,101186.25
2022-10-04T18:17:50.759Z,101193.03
2022-10-04T18:20:27.978Z,101187.88
2022-10-04T18:23:22.329Z,101185.22
2022-10-04T18:25:52.410Z,101196.03
2022-10-04T18:28:26.927Z,101202.50
2022-10-04T18:31:20.804Z,101200.06
2022-10-04T18:37:05.043Z,101199.81
2022-10-04T18:39:55.469Z,101200.38
2022-10-04T18:42:37.424Z,101196.59
2022-10-04T18:45:33.021Z,101188.47
2022-10-04T18:48:16.689Z,101194.97
2022-10-04T18:50:50.476Z,101190.13
2022-10-04T18:53:39.529Z,101189.59
2022-10-04T18:56:14.485Z,101186.34
2022-10-04T18:59:06.482Z,101187.69
2022-10-04T19:02:02.501Z,101182.59
2022-10-04T19:04:58.064Z,101194.22
2022-10-04T19:08:11.261Z,101197.44
2022-10-04T19:10:50.958Z,101195.84
2022-10-04T19:13:48.937Z,101201.50
2022-10-04T19:16:33.067Z,101201.53
2022-10-04T19:19:37.154Z,101211.78
2022-10-04T19:22:57.651Z,101210.69
2022-10-04T19:29:26.894Z,101230.66
2022-10-04T19:32:28.060Z,101231.19
2022-10-04T19:35:05.906Z,101234.69
2022-10-04T19:38:26.388Z,101235.22
2022-10-04T19:41:45.219Z,101240.06
2022-10-04T19:47:42.647Z,101239.50
2022-10-04T19:50:24.856Z,101245.69
2022-10-04T19:53:24.203Z,101247.84
2022-10-04T19:56:01.340Z,101247.03
2022-10-04T19:59:13.680Z,101250.00
2022-10-04T20:01:48.277Z,101250.78
2022-10-04T20:04:38.043Z,101248.91
2022-10-04T20:07:20.994Z,101255.34
2022-10-04T20:10:30.634Z,101261.81
2022-10-04T20:13:25.799Z,101261.00
2022-10-04T20:16:20.644Z,101263.94
2022-10-04T20:19:15.137Z,101266.66
2022-10-04T20:21:49.897Z,101256.94
2022-10-04T20:27:30.873Z,101257.97
2022-10-04T20:30:07.446Z,101258.22
2022-10-04T20:32:40.918Z,101257.13
2022-10-04T20:35:16.607Z,101263.34
2022-10-04T20:38:13.633Z,101263.66
2022-10-04T20:40:47.224Z,101266.59
2022-10-04T20:43:23.401Z,101269.06
2022-10-04T20:45:58.642Z,101267.41
2022-10-04T20:48:39.927Z,101271.44
2022-10-04T20:51:25.996Z,101274.09
2022-10-04T20:54:06.668Z,101276.75
2022-10-04T20:56:35.060Z,101273.00
2022-10-04T20:59:04.850Z,101272.44
2022-10-04T21:01:54.344Z,101280.22
2022-10-04T21:04:50.883Z,101279.94
2022-10-04T21:08:08.095Z,101280.47
2022-10-04T21:10:45.192Z,101277.50
2022-10-04T21:13:48.762Z,101285.38
2022-10-04T21:17:02.999Z,101288.63
2022-10-04T21:19:57.962Z,101277.03
2022-10-04T21:22:44.036Z,101278.06
2022-10-04T21:26:10.076Z,101276.69
2022-10-04T21:29:01.076Z,101281.28
2022-10-04T21:31:31.236Z,101286.91
2022-10-04T21:34:20.225Z,101277.22
2022-10-04T21:37:23.282Z,101265.56
2022-10-04T21:46:20.682Z,101250.44
2022-10-04T21:49:20.919Z,101250.97
2022-10-04T21:52:02.012Z,101254.97
2022-10-04T21:54:36.441Z,101251.78
2022-10-04T21:57:07.406Z,101245.84
2022-10-04T21:59:37.945Z,101249.63
2022-10-04T22:02:11.024Z,101249.03
2022-10-04T22:04:42.402Z,101234.94
2022-10-04T22:07:13.245Z,101235.75
2022-10-04T22:13:14.619Z,101242.72
2022-10-04T22:16:08.625Z,101248.31
2022-10-04T22:18:44.823Z,101247.50
2022-10-04T22:24:28.914Z,101245.44
2022-10-04T22:27:30.571Z,101249.97
2022-10-04T22:33:00.551Z,101232.59
2022-10-04T22:39:20.469Z,101226.03
2022-10-04T22:42:02.097Z,101227.28
2022-10-04T22:44:43.271Z,101231.56
2022-10-04T22:47:23.631Z,101228.88
2022-10-04T22:49:53.542Z,101236.19
2022-10-04T22:58:40.803Z,101226.66
2022-10-04T23:01:22.744Z,101215.00
2022-10-04T23:03:50.373Z,101216.13
2022-10-04T23:06:17.507Z,101210.19
2022-10-04T23:08:44.762Z,101201.66
2022-10-04T23:11:11.770Z,101202.19
2022-10-04T23:13:38.648Z,101214.06
2022-10-04T23:16:20.999Z,101207.03
2022-10-04T23:18:47.660Z,101205.13
2022-10-04T23:21:20.697Z,101206.22
2022-10-04T23:23:48.332Z,101210.19
2022-10-04T23:26:27.280Z,101217.53
2022-10-04T23:28:53.844Z,101209.94
2022-10-04T23:31:24.147Z,101202.44
2022-10-04T23:33:53.263Z,101208.50
2022-10-04T23:36:20.405Z,101214.69
2022-10-04T23:38:55.941Z,101202.91
2022-10-04T23:41:22.588Z,101208.28
2022-10-04T23:43:49.450Z,101197.53
2022-10-04T23:46:19.647Z,101198.00
2022-10-04T23:48:46.971Z,101198.72
2022-10-04T23:51:18.534Z,101206.97
2022-10-04T23:53:49.071Z,101214.69
2022-10-04T23:56:24.986Z,101222.50
2022-10-04T23:58:54.945Z,101224.06
